createdAt,value
2019-04-16T00:02:19.382Z,100484.50
2019-04-16T00:05:11.621Z,100488.23
2019-04-16T00:07:57.545Z,100480.11
2019-04-16T00:10:45.933Z,100484.34
2019-04-16T00:13:39.668Z,100484.59
2019-04-16T00:16:12.685Z,100484.11
2019-04-16T00:18:56.373Z,100480.95
2019-04-16T00:21:32.168Z,100476.60
2019-04-16T00:24:18.141Z,100479.62
2019-04-16T00:26:45.980Z,100471.66
2019-04-16T00:29:16.430Z,100467.64
2019-04-16T00:32:07.817Z,100471.50
2019-04-16T00:34:35.007Z,100468.59
2019-04-16T00:37:05.528Z,100472.09
2019-04-16T00:39:35.996Z,100462.91
2019-04-16T00:42:06.422Z,100457.10
2019-04-16T00:44:36.855Z,100454.70
2019-04-16T00:47:07.336Z,100462.78
2019-04-16T00:49:38.166Z,100461.54
2019-04-16T00:52:08.674Z,100462.02
2019-04-16T00:54:42.140Z,100465.52
2019-04-16T00:57:11.283Z,100468.72
2019-04-16T00:59:41.736Z,100462.33
2019-04-16T01:02:12.576Z,100463.89
2019-04-16T01:04:48.796Z,100461.12
2019-04-16T01:07:19.273Z,100461.36
2019-04-16T01:09:49.772Z,100467.23
2019-04-16T01:12:20.539Z,100466.23
2019-04-16T01:14:51.012Z,100460.42
2019-04-16T01:17:21.482Z,100467.79
2019-04-16T01:19:51.904Z,100462.44
2019-04-16T01:22:22.387Z,100457.50
2019-04-16T01:24:52.818Z,100461.36
2019-04-16T01:27:32.296Z,100459.66
2019-04-16T01:30:05.962Z,100464.95
2019-04-16T01:33:06.546Z,100464.70
2019-04-16T01:35:53.697Z,100469.56
2019-04-16T01:38:29.694Z,100463.37
2019-04-16T01:41:05.316Z,100467.45
2019-04-16T01:43:35.875Z,100467.65
2019-04-16T01:46:06.301Z,100469.70
2019-04-16T01:48:38.975Z,100467.63
2019-04-16T01:51:08.927Z,100465.11
2019-04-16T01:53:39.354Z,100465.67
2019-04-16T01:56:09.781Z,100468.58
2019-04-16T01:58:40.264Z,100466.73
2019-04-16T02:01:12.305Z,100481.38
2019-04-16T02:03:42.860Z,100471.90
2019-04-16T02:06:13.327Z,100473.23
2019-04-16T02:08:43.761Z,100469.05
2019-04-16T02:11:14.189Z,100470.95
2019-04-16T02:13:46.172Z,100468.05
2019-04-16T02:16:16.960Z,100470.77
2019-04-16T02:18:47.744Z,100466.28
2019-04-16T02:21:18.250Z,100470.19
2019-04-16T02:23:48.826Z,100471.86
2019-04-16T02:26:20.559Z,100470.84
2019-04-16T02:28:52.157Z,100465.24
2019-04-16T02:31:30.498Z,100466.98
2019-04-16T02:34:01.024Z,100469.33
2019-04-16T02:36:31.425Z,100461.65
2019-04-16T02:39:02.104Z,100457.37
2019-04-16T02:41:33.014Z,100454.72
2019-04-16T02:44:03.439Z,100452.33
2019-04-16T02:46:33.895Z,100454.52
2019-04-16T02:49:04.545Z,100450.84
2019-04-16T02:51:53.900Z,100446.20
2019-04-16T02:54:34.283Z,100447.25
2019-04-16T02:57:32.950Z,100444.61
2019-04-16T03:00:08.508Z,100442.97
2019-04-16T03:02:47.748Z,100448.11
2019-04-16T03:05:38.935Z,100442.59
2019-04-16T03:08:09.675Z,100436.47
2019-04-16T03:10:41.861Z,100441.42
2019-04-16T03:13:12.327Z,100441.84
2019-04-16T03:16:07.749Z,100445.64
2019-04-16T03:18:46.905Z,100439.00
2019-04-16T03:21:15.312Z,100438.20
2019-04-16T03:23:46.123Z,100435.38
2019-04-16T03:26:18.093Z,100423.16
2019-04-16T03:28:48.870Z,100419.08
2019-04-16T03:31:23.216Z,100422.32
2019-04-16T03:33:51.831Z,100418.34
2019-04-16T03:36:22.286Z,100416.08
2019-04-16T03:38:53.104Z,100414.05
2019-04-16T03:41:25.067Z,100409.28
2019-04-16T03:43:55.873Z,100405.95
2019-04-16T03:46:27.129Z,100414.42
2019-04-16T03:48:57.600Z,100414.96
2019-04-16T03:51:28.030Z,100407.13
2019-04-16T03:53:58.455Z,100410.95
2019-04-16T03:56:30.644Z,100409.63
2019-04-16T03:59:01.236Z,100414.91
2019-04-16T04:01:31.734Z,100411.69
2019-04-16T04:04:02.215Z,100406.91
2019-04-16T04:06:32.656Z,100408.12
2019-04-16T04:09:04.249Z,100406.42
2019-04-16T04:11:35.191Z,100400.86
2019-04-16T04:14:05.968Z,100401.68
2019-04-16T04:16:36.382Z,100395.83
2019-04-16T04:19:06.866Z,100390.32
2019-04-16T04:21:37.310Z,100390.67
2019-04-16T04:24:08.413Z,100387.48
2019-04-16T04:26:42.240Z,100389.31
2019-04-16T04:29:11.027Z,100385.28
2019-04-16T04:31:41.480Z,100386.56
2019-04-16T04:34:15.371Z,100386.45
2019-04-16T04:36:44.979Z,100390.91
2019-04-16T04:39:16.024Z,100387.11
2019-04-16T04:41:46.679Z,100391.20
2019-04-16T04:44:17.116Z,100395.17
2019-04-16T04:46:47.555Z,100394.30
2019-04-16T04:49:18.047Z,100392.70
2019-04-16T04:51:48.484Z,100388.84
2019-04-16T04:54:21.943Z,100391.28
2019-04-16T04:56:51.107Z,100394.20
2019-04-16T04:59:21.554Z,100392.22
2019-04-16T05:01:51.998Z,100393.98
2019-04-16T05:04:49.571Z,100395.12
2019-04-16T05:07:20.618Z,100394.70
2019-04-16T05:09:51.049Z,100385.62
2019-04-16T05:12:22.243Z,100397.36
2019-04-16T05:14:58.494Z,100396.31
2019-04-16T05:17:30.254Z,100397.00
2019-04-16T05:20:00.702Z,100403.05
2019-04-16T05:22:32.950Z,100402.73
2019-04-16T05:25:03.620Z,100401.84
2019-04-16T05:27:34.069Z,100405.59
2019-04-16T05:30:05.377Z,100405.84
2019-04-16T05:32:36.734Z,100411.18
2019-04-16T05:35:10.291Z,100410.66
2019-04-16T05:37:40.105Z,100407.48
2019-04-16T05:40:11.445Z,100416.28
2019-04-16T05:42:41.882Z,100411.50
2019-04-16T05:45:12.580Z,100409.09
2019-04-16T05:47:43.063Z,100410.77
2019-04-16T05:50:14.094Z,100409.86
2019-04-16T05:52:45.242Z,100402.72
2019-04-16T05:55:22.818Z,100399.54
2019-04-16T05:57:57.947Z,100396.50
2019-04-16T06:00:41.771Z,100393.73
2019-04-16T06:03:13.869Z,100400.28
2019-04-16T06:05:44.329Z,100394.64
2019-04-16T06:08:14.979Z,100394.62
2019-04-16T06:10:49.777Z,100395.28
2019-04-16T06:13:28.187Z,100396.31
2019-04-16T06:16:16.710Z,100392.19
2019-04-16T06:19:11.443Z,100397.13
2019-04-16T06:21:59.057Z,100399.20
2019-04-16T06:24:40.060Z,100394.70
2019-04-16T06:27:34.881Z,100390.15
2019-04-16T06:30:24.663Z,100400.14
2019-04-16T06:33:02.513Z,100394.38
2019-04-16T06:35:43.880Z,100397.05
2019-04-16T06:38:17.849Z,100407.92
2019-04-16T06:41:03.377Z,100397.95
2019-04-16T06:43:39.026Z,100395.10
2019-04-16T06:46:40.623Z,100401.10
2019-04-16T06:49:39.580Z,100401.47
2019-04-16T06:52:35.800Z,100405.14
2019-04-16T06:55:18.648Z,100402.95
2019-04-16T06:58:12.542Z,100395.10
2019-04-16T07:00:54.121Z,100396.79
2019-04-16T07:03:44.258Z,100396.05
2019-04-16T07:06:36.024Z,100397.64
2019-04-16T07:09:40.889Z,100395.55
2019-04-16T07:12:04.210Z,100394.20
2019-04-16T07:14:36.187Z,100389.84
2019-04-16T07:17:07.185Z,100391.78
2019-04-16T07:19:39.406Z,100392.73
2019-04-16T07:22:09.796Z,100387.59
2019-04-16T07:24:40.361Z,100380.98
2019-04-16T07:27:10.865Z,100387.00
2019-04-16T07:29:46.867Z,100386.92
2019-04-16T07:32:35.563Z,100380.95
2019-04-16T07:35:27.132Z,100385.46
2019-04-16T07:38:35.440Z,100384.72
2019-04-16T07:41:31.290Z,100378.38
2019-04-16T07:44:11.451Z,100377.32
2019-04-16T07:46:53.378Z,100378.27
2019-04-16T07:49:42.736Z,100377.09
2019-04-16T07:52:27.201Z,100374.25
2019-04-16T07:55:27.504Z,100381.72
2019-04-16T07:57:58.165Z,100377.33
2019-04-16T08:00:29.071Z,100367.23
2019-04-16T08:03:00.073Z,100372.70
2019-04-16T08:05:30.955Z,100371.79
2019-04-16T08:08:01.879Z,100370.83
2019-04-16T08:10:32.330Z,100375.17
2019-04-16T08:13:09.597Z,100368.77
2019-04-16T08:15:40.144Z,100367.41
2019-04-16T08:18:10.583Z,100370.38
2019-04-16T08:20:41.070Z,100372.98
2019-04-16T08:23:28.548Z,100366.76
2019-04-16T08:26:03.624Z,100371.94
2019-04-16T08:28:32.150Z,100367.05
2019-04-16T08:31:03.935Z,100362.96
2019-04-16T08:33:34.463Z,100366.45
2019-04-16T08:36:05.239Z,100367.89
2019-04-16T08:38:35.814Z,100366.59
2019-04-16T08:41:06.253Z,100362.49
2019-04-16T08:43:36.692Z,100361.78
2019-04-16T08:46:11.041Z,100363.55
2019-04-16T08:48:39.986Z,100357.44
2019-04-16T08:51:10.428Z,100361.23
2019-04-16T08:53:43.727Z,100358.81
2019-04-16T08:56:13.153Z,100351.20
2019-04-16T08:58:43.598Z,100347.05
2019-04-16T09:01:20.108Z,100344.12
2019-04-16T09:03:50.161Z,100344.78
2019-04-16T09:06:20.599Z,100347.52
2019-04-16T09:09:24.339Z,100338.90
2019-04-16T09:11:57.100Z,100335.54
2019-04-16T09:14:29.908Z,100337.05
2019-04-16T09:17:25.455Z,100333.98
2019-04-16T09:20:14.862Z,100336.36
2019-04-16T09:22:49.136Z,100331.20
2019-04-16T09:25:35.546Z,100332.95
2019-04-16T09:28:25.175Z,100327.39
2019-04-16T09:31:23.610Z,100333.97
2019-04-16T09:34:05.573Z,100325.25
2019-04-16T09:36:34.627Z,100330.90
2019-04-16T09:39:26.412Z,100328.56
2019-04-16T09:41:56.898Z,100331.34
2019-04-16T09:44:31.524Z,100327.47
2019-04-16T09:47:00.465Z,100332.72
2019-04-16T09:49:31.056Z,100328.78
2019-04-16T09:52:03.935Z,100328.31
2019-04-16T09:54:33.643Z,100326.11
2019-04-16T09:57:04.147Z,100323.59
2019-04-16T09:59:44.741Z,100326.11
2019-04-16T10:02:20.159Z,100323.08
2019-04-16T10:04:50.752Z,100315.37
2019-04-16T10:07:21.465Z,100322.08
2019-04-16T10:09:54.566Z,100316.41
2019-04-16T10:12:25.380Z,100314.77
2019-04-16T10:14:56.233Z,100319.75
2019-04-16T10:17:26.705Z,100317.75
2019-04-16T10:19:57.168Z,100309.17
2019-04-16T10:22:27.918Z,100306.88
2019-04-16T10:25:23.482Z,100307.70
2019-04-16T10:28:05.664Z,100304.36
2019-04-16T10:30:41.700Z,100297.63
2019-04-16T10:33:12.274Z,100302.97
2019-04-16T10:35:43.010Z,100296.03
2019-04-16T10:38:41.735Z,100286.84
2019-04-16T10:41:29.107Z,100296.59
2019-04-16T10:44:14.295Z,100288.36
2019-04-16T10:47:03.675Z,100285.83
2019-04-16T10:49:52.798Z,100280.43
2019-04-16T10:52:45.178Z,100281.08
2019-04-16T10:55:33.086Z,100278.69
2019-04-16T10:58:25.559Z,100283.63
2019-04-16T11:01:04.157Z,100280.55
2019-04-16T11:03:56.914Z,100279.49
2019-04-16T11:06:39.631Z,100271.63
2019-04-16T11:09:11.062Z,100279.95
2019-04-16T11:11:41.812Z,100268.08
2019-04-16T11:14:12.366Z,100262.52
2019-04-16T11:16:44.766Z,100272.03
2019-04-16T11:19:15.246Z,100281.45
2019-04-16T11:21:45.795Z,100274.36
2019-04-16T11:24:16.454Z,100267.11
2019-04-16T11:26:46.880Z,100269.00
2019-04-16T11:29:17.372Z,100265.16
2019-04-16T11:31:47.972Z,100261.37
2019-04-16T11:34:18.572Z,100261.71
2019-04-16T11:36:49.091Z,100269.08
2019-04-16T11:39:19.744Z,100263.84
2019-04-16T11:41:50.301Z,100268.80
2019-04-16T11:44:21.132Z,100264.81
2019-04-16T11:46:51.635Z,100265.81
2019-04-16T11:49:22.207Z,100263.80
2019-04-16T11:51:54.032Z,100263.42
2019-04-16T11:54:24.478Z,100262.69
2019-04-16T11:56:55.470Z,100265.81
2019-04-16T11:59:27.114Z,100268.34
2019-04-16T12:02:16.496Z,100254.47
2019-04-16T12:05:03.651Z,100267.45
2019-04-16T12:07:48.395Z,100261.64
2019-04-16T12:10:37.329Z,100256.38
2019-04-16T12:13:25.276Z,100261.69
2019-04-16T12:16:30.059Z,100257.20
2019-04-16T12:19:25.174Z,100261.23
2019-04-16T12:22:23.968Z,100258.72
2019-04-16T12:25:03.261Z,100250.05
2019-04-16T12:27:50.210Z,100252.36
2019-04-16T12:30:55.137Z,100249.28
2019-04-16T12:33:38.759Z,100247.48
2019-04-16T12:36:34.372Z,100239.33
2019-04-16T12:39:19.542Z,100251.94
2019-04-16T12:42:07.415Z,100241.38
2019-04-16T12:44:48.953Z,100236.01
2019-04-16T12:47:35.714Z,100243.24
2019-04-16T12:50:26.258Z,100235.42
2019-04-16T12:53:24.699Z,100240.08
2019-04-16T12:56:23.628Z,100237.77
2019-04-16T12:59:15.278Z,100238.72
2019-04-16T13:02:14.256Z,100242.08
2019-04-16T13:04:56.711Z,100235.47
2019-04-16T13:07:46.423Z,100236.50
2019-04-16T13:10:21.138Z,100236.23
2019-04-16T13:13:10.660Z,100227.27
2019-04-16T13:15:58.608Z,100225.92
2019-04-16T13:18:48.035Z,100221.36
2019-04-16T13:21:24.920Z,100222.20
2019-04-16T13:24:07.149Z,100217.08
2019-04-16T13:26:47.217Z,100221.95
2019-04-16T13:29:29.183Z,100226.55
2019-04-16T13:31:56.032Z,100225.14
2019-04-16T13:34:26.476Z,100211.14
2019-04-16T13:36:59.633Z,100213.70
2019-04-16T13:39:59.610Z,100217.22
2019-04-16T13:42:30.341Z,100213.17
2019-04-16T13:45:16.997Z,100215.56
2019-04-16T13:47:54.565Z,100210.39
2019-04-16T13:50:25.851Z,100210.05
2019-04-16T13:53:05.475Z,100217.09
2019-04-16T13:55:55.157Z,100213.49
2019-04-16T13:58:39.694Z,100216.85
2019-04-16T14:01:16.096Z,100214.28
2019-04-16T14:03:46.671Z,100212.22
2019-04-16T14:06:17.128Z,100210.22
2019-04-16T14:08:47.656Z,100212.32
2019-04-16T14:11:19.735Z,100214.92
2019-04-16T14:13:50.486Z,100214.30
2019-04-16T14:16:20.947Z,100219.25
2019-04-16T14:18:51.467Z,100212.12
2019-04-16T14:21:22.288Z,100204.03
2019-04-16T14:23:53.168Z,100206.81
2019-04-16T14:26:23.668Z,100203.59
2019-04-16T14:28:56.821Z,100203.45
2019-04-16T14:31:27.243Z,100203.15
2019-04-16T14:34:16.199Z,100211.46
2019-04-16T14:36:46.686Z,100205.04
2019-04-16T14:39:24.927Z,100206.86
2019-04-16T14:41:55.691Z,100195.99
2019-04-16T14:44:28.053Z,100197.84
2019-04-16T14:47:00.566Z,100198.23
2019-04-16T14:49:30.685Z,100203.23
2019-04-16T14:52:02.028Z,100197.77
2019-04-16T14:54:38.730Z,100206.67
2019-04-16T14:57:10.964Z,100200.38
2019-04-16T14:59:52.784Z,100198.50
2019-04-16T15:02:51.708Z,100199.91
2019-04-16T15:05:39.000Z,100208.59
2019-04-16T15:08:18.903Z,100201.43
2019-04-16T15:11:14.380Z,100195.43
2019-04-16T15:14:02.524Z,100197.72
2019-04-16T15:16:58.351Z,100198.08
2019-04-16T15:19:31.543Z,100199.53
2019-04-16T15:22:20.536Z,100195.81
2019-04-16T15:25:06.011Z,100197.72
2019-04-16T15:27:44.021Z,100197.82
2019-04-16T15:30:43.035Z,100199.17
2019-04-16T15:33:25.855Z,100194.59
2019-04-16T15:35:59.771Z,100191.13
2019-04-16T15:38:50.133Z,100193.56
2019-04-16T15:41:25.605Z,100195.94
2019-04-16T15:44:09.635Z,100200.59
2019-04-16T15:47:01.563Z,100203.13
2019-04-16T15:49:55.625Z,100206.19
2019-04-16T15:52:51.268Z,100207.73
2019-04-16T15:55:35.379Z,100202.81
2019-04-16T15:58:21.303Z,100211.44
2019-04-16T16:01:09.509Z,100209.95
2019-04-16T16:04:01.950Z,100205.27
2019-04-16T16:06:32.816Z,100206.33
2019-04-16T16:09:10.047Z,100206.14
2019-04-16T16:11:51.927Z,100205.32
2019-04-16T16:14:22.712Z,100211.39
2019-04-16T16:16:53.779Z,100211.58
2019-04-16T16:19:24.575Z,100209.56
2019-04-16T16:21:55.015Z,100216.63
2019-04-16T16:24:25.649Z,100216.83
2019-04-16T16:26:56.831Z,100215.00
2019-04-16T16:29:27.429Z,100217.92
2019-04-16T16:31:57.875Z,100213.78
2019-04-16T16:34:29.130Z,100222.77
2019-04-16T16:36:59.574Z,100219.77
2019-04-16T16:39:30.030Z,100219.44
2019-04-16T16:42:00.890Z,100219.14
2019-04-16T16:44:33.403Z,100227.08
2019-04-16T16:47:22.820Z,100230.96
2019-04-16T16:49:54.442Z,100230.96
2019-04-16T16:52:38.142Z,100229.31
2019-04-16T16:55:11.500Z,100225.16
2019-04-16T16:57:54.165Z,100234.31
2019-04-16T17:00:42.494Z,100238.84
2019-04-16T17:03:31.914Z,100238.36
2019-04-16T17:06:02.361Z,100229.18
2019-04-16T17:08:32.880Z,100243.16
2019-04-16T17:11:16.320Z,100239.64
2019-04-16T17:13:35.877Z,100242.56
2019-04-16T17:16:06.352Z,100250.79
2019-04-16T17:18:37.028Z,100250.31
2019-04-16T17:21:08.436Z,100251.71
2019-04-16T17:23:38.883Z,100250.19
2019-04-16T17:26:09.385Z,100252.56
2019-04-16T17:28:40.273Z,100257.45
2019-04-16T17:31:12.263Z,100255.63
2019-04-16T17:33:42.753Z,100257.83
2019-04-16T17:36:13.229Z,100265.73
2019-04-16T17:38:43.688Z,100264.25
2019-04-16T17:41:18.723Z,100262.42
2019-04-16T17:44:03.842Z,100266.66
2019-04-16T17:47:04.196Z,100268.70
2019-04-16T17:50:02.494Z,100274.77
2019-04-16T17:52:40.183Z,100278.81
2019-04-16T17:55:28.723Z,100279.83
2019-04-16T17:58:07.340Z,100274.45
2019-04-16T18:01:02.304Z,100283.20
2019-04-16T18:03:55.099Z,100280.68
2019-04-16T18:06:41.780Z,100279.15
2019-04-16T18:09:28.701Z,100287.20
2019-04-16T18:12:17.006Z,100291.72
2019-04-16T18:15:10.700Z,100299.61
2019-04-16T18:18:01.041Z,100295.58
2019-04-16T18:20:58.850Z,100305.45
2019-04-16T18:24:01.153Z,100306.62
2019-04-16T18:27:09.073Z,100313.66
2019-04-16T18:30:16.870Z,100313.62
2019-04-16T18:33:14.816Z,100320.48
2019-04-16T18:36:03.265Z,100319.14
2019-04-16T18:38:51.879Z,100328.00
2019-04-16T18:41:39.864Z,100329.34
2019-04-16T18:44:35.087Z,100336.02
2019-04-16T18:47:24.459Z,100341.89
2019-04-16T18:49:57.654Z,100340.02
2019-04-16T18:52:28.504Z,100343.33
2019-04-16T18:54:58.956Z,100343.98
2019-04-16T18:57:29.447Z,100350.34
2019-04-16T19:00:00.199Z,100358.34
2019-04-16T19:02:30.992Z,100357.52
2019-04-16T19:05:01.881Z,100365.19
2019-04-16T19:07:34.411Z,100365.35
2019-04-16T19:10:06.969Z,100370.98
2019-04-16T19:12:37.419Z,100373.45
2019-04-16T19:15:08.462Z,100369.95
2019-04-16T19:17:38.980Z,100377.43
2019-04-16T19:20:09.657Z,100380.56
2019-04-16T19:22:40.498Z,100377.38
2019-04-16T19:25:11.014Z,100381.82
2019-04-16T19:27:41.494Z,100389.19
2019-04-16T19:30:12.056Z,100385.78
2019-04-16T19:32:42.560Z,100390.56
2019-04-16T19:35:17.622Z,100397.01
2019-04-16T19:37:46.463Z,100399.87
2019-04-16T19:40:18.986Z,100407.69
2019-04-16T19:42:49.246Z,100407.27
2019-04-16T19:45:20.100Z,100411.02
2019-04-16T19:47:50.620Z,100410.03
2019-04-16T19:50:21.113Z,100417.67
2019-04-16T19:52:52.054Z,100420.66
2019-04-16T19:55:22.645Z,100421.25
2019-04-16T19:57:56.951Z,100422.14
2019-04-16T20:00:29.723Z,100418.13
2019-04-16T20:03:00.593Z,100422.66
2019-04-16T20:05:31.606Z,100414.27
2019-04-16T20:08:02.503Z,100423.09
2019-04-16T20:10:32.933Z,100422.69
2019-04-16T20:13:03.391Z,100430.66
2019-04-16T20:15:33.902Z,100429.86
2019-04-16T20:18:06.840Z,100432.33
2019-04-16T20:20:37.838Z,100429.05
2019-04-16T20:23:10.727Z,100427.34
2019-04-16T20:25:41.573Z,100426.27
2019-04-16T20:28:15.390Z,100439.94
2019-04-16T20:30:45.235Z,100429.77
2019-04-16T20:33:15.719Z,100433.13
2019-04-16T20:35:50.383Z,100431.23
2019-04-16T20:38:18.731Z,100430.70
2019-04-16T20:40:49.258Z,100433.96
2019-04-16T20:43:19.714Z,100429.75
2019-04-16T20:45:50.236Z,100431.85
2019-04-16T20:48:21.072Z,100434.52
2019-04-16T20:50:54.172Z,100426.09
2019-04-16T20:53:24.873Z,100430.66
2019-04-16T20:55:55.786Z,100427.99
2019-04-16T20:58:30.695Z,100430.37
2019-04-16T21:00:59.872Z,100429.38
2019-04-16T21:03:31.187Z,100431.38
2019-04-16T21:06:07.133Z,100426.16
2019-04-16T21:08:35.102Z,100435.56
2019-04-16T21:11:08.830Z,100436.69
2019-04-16T21:13:38.082Z,100438.32
2019-04-16T21:16:08.593Z,100440.34
2019-04-16T21:18:39.062Z,100438.89
2019-04-16T21:21:09.504Z,100445.06
2019-04-16T21:23:40.211Z,100443.81
2019-04-16T21:26:10.658Z,100437.76
2019-04-16T21:28:50.284Z,100446.75
2019-04-16T21:31:25.676Z,100445.34
2019-04-16T21:34:01.885Z,100451.41
2019-04-16T21:36:43.751Z,100453.30
2019-04-16T21:39:31.524Z,100455.61
2019-04-16T21:42:03.320Z,100464.13
2019-04-16T21:44:34.191Z,100454.44
2019-04-16T21:47:04.749Z,100464.61
2019-04-16T21:49:38.808Z,100461.11
2019-04-16T21:52:07.859Z,100463.28
2019-04-16T21:54:39.431Z,100462.50
2019-04-16T21:57:13.628Z,100467.98
2019-04-16T21:59:43.175Z,100473.83
2019-04-16T22:02:25.327Z,100467.15
2019-04-16T22:04:56.207Z,100461.16
2019-04-16T22:07:27.302Z,100461.73
2019-04-16T22:09:57.774Z,100461.88
2019-04-16T22:12:28.264Z,100463.43
2019-04-16T22:14:58.974Z,100468.27
2019-04-16T22:17:29.494Z,100475.55
2019-04-16T22:20:03.699Z,100470.94
2019-04-16T22:22:33.298Z,100468.67
2019-04-16T22:25:04.006Z,100465.88
2019-04-16T22:27:36.736Z,100475.34
2019-04-16T22:30:07.437Z,100484.28
2019-04-16T22:32:37.940Z,100482.23
2019-04-16T22:35:08.480Z,100473.61
2019-04-16T22:37:38.878Z,100482.30
2019-04-16T22:40:23.500Z,100489.30
2019-04-16T22:43:25.109Z,100485.66
2019-04-16T22:46:05.765Z,100489.38
2019-04-16T22:48:36.202Z,100492.98
2019-04-16T22:51:10.165Z,100487.67
2019-04-16T22:53:39.559Z,100495.14
2019-04-16T22:56:10.002Z,100494.70
2019-04-16T22:58:50.113Z,100495.95
2019-04-16T23:01:22.034Z,100498.88
2019-04-16T23:03:53.344Z,100498.11
2019-04-16T23:06:24.690Z,100499.00
2019-04-16T23:08:55.122Z,100494.56
2019-04-16T23:11:25.954Z,100491.84
2019-04-16T23:13:57.077Z,100492.48
2019-04-16T23:16:27.930Z,100496.39
2019-04-16T23:18:58.398Z,100500.17
2019-04-16T23:21:28.912Z,100493.64
2019-04-16T23:23:59.346Z,100499.09
2019-04-16T23:26:32.995Z,100499.00
2019-04-16T23:29:01.984Z,100496.61
2019-04-16T23:31:32.428Z,100500.38
2019-04-16T23:34:06.374Z,100497.86
2019-04-16T23:36:36.162Z,100497.72
2019-04-16T23:39:08.087Z,100503.28
2019-04-16T23:41:38.881Z,100502.30
2019-04-16T23:44:40.830Z,100505.30
2019-04-16T23:47:31.224Z,100501.66
2019-04-16T23:50:20.657Z,100503.00
2019-04-16T23:52:59.255Z,100500.25
2019-04-16T23:55:48.787Z,100502.30
2019-04-16T23:58:29.457Z,100504.38
